Time;durP1;ratioP1;P1;durP2;ratioP2;P2;SDS_P1;SDS_P2;PMS_P1;PMS_P2;Temp;Humidity;BMP_temperature;BMP_pressure;BME280_temperature;BME280_humidity;BME280_pressure;Samples;Min_cycle;Max_cycle;Signal;HPM_P1;HPM_P2
2024/03/28 00:02:12;;;;;;;0.85;0.85;;;2.40;99.90;;;;;;5094364;28;20555;-63
2024/03/28 00:04:38;;;;;;;0.77;0.77;;;2.30;99.90;;;;;;5093853;28;20180;-63
2024/03/28 00:07:04;;;;;;;1.00;1.00;;;2.40;99.90;;;;;;5094063;28;20179;-63
2024/03/28 00:09:30;;;;;;;0.57;0.57;;;2.40;99.90;;;;;;5093659;28;20474;-63
2024/03/28 00:11:56;;;;;;;1.20;0.73;;;2.40;99.90;;;;;;5093866;28;20425;-64
2024/03/28 00:14:22;;;;;;;0.85;0.60;;;2.80;99.90;;;;;;5092643;28;20262;-64
2024/03/28 00:16:48;;;;;;;1.30;0.70;;;2.30;99.90;;;;;;5093953;28;20215;-63
2024/03/28 00:19:14;;;;;;;0.90;0.70;;;2.90;99.90;;;;;;5093531;28;20217;-63
2024/03/28 00:21:40;;;;;;;0.98;0.73;;;2.40;99.90;;;;;;5093735;28;20218;-63
2024/03/28 00:24:06;;;;;;;0.85;0.80;;;3.20;99.90;;;;;;5093509;28;20332;-63
2024/03/28 00:26:32;;;;;;;1.67;0.98;;;2.70;99.90;;;;;;5093800;28;20661;-64
2024/03/28 00:28:57;;;;;;;1.03;1.03;;;3.30;99.90;;;;;;5093268;28;20283;-63
2024/03/28 00:31:23;;;;;;;2.50;1.20;;;3.20;99.90;;;;;;5093490;28;20426;-64
2024/03/28 00:33:48;;;;;;;0.73;0.50;;;3.10;99.90;;;;;;5093416;28;20586;-64
2024/03/28 00:36:14;;;;;;;0.73;0.73;;;3.40;99.90;;;;;;5110975;22;20231;-58
2024/03/28 00:38:40;;;;;;;0.30;0.30;;;2.50;99.90;;;;;;5091384;28;20172;-58
2024/03/28 00:41:06;;;;;;;0.50;0.50;;;2.60;99.90;;;;;;5091416;28;20184;-57
2024/03/28 00:43:31;;;;;;;0.60;0.60;;;2.90;99.90;;;;;;5091675;28;20260;-58
2024/03/28 00:46:00;;;;;;;1.60;0.80;;;2.70;99.90;;;;;;5099151;28;20421;-59
2024/03/28 00:48:26;;;;;;;0.65;0.57;;;2.90;99.90;;;;;;5111907;28;20170;-58
2024/03/28 00:50:52;;;;;;;1.07;0.70;;;2.40;99.90;;;;;;5111875;28;20200;-58
2024/03/28 00:53:18;;;;;;;1.98;1.88;;;3.20;99.90;;;;;;5112017;28;20402;-58
2024/03/28 00:55:44;;;;;;;0.50;0.50;;;3.30;99.90;;;;;;5111952;28;20201;-58
2024/03/28 00:58:09;;;;;;;0.83;0.50;;;3.30;99.90;;;;;;5111883;28;20223;-58
2024/03/28 01:00:35;;;;;;;1.07;0.70;;;2.40;99.90;;;;;;5111574;28;20194;-58
2024/03/28 01:03:01;;;;;;;1.10;0.83;;;3.20;99.90;;;;;;5112111;28;20655;-58
2024/03/28 01:05:27;;;;;;;2.53;0.80;;;2.40;99.90;;;;;;5111948;28;20202;-58
2024/03/28 01:07:52;;;;;;;0.70;0.70;;;2.30;99.90;;;;;;5111773;28;20992;-59
2024/03/28 01:10:18;;;;;;;1.47;0.87;;;2.50;99.90;;;;;;5111530;28;20199;-58
2024/03/28 01:12:44;;;;;;;1.23;1.10;;;2.30;99.90;;;;;;5111818;28;20160;-58
2024/03/28 01:15:09;;;;;;;0.70;0.70;;;2.40;99.90;;;;;;5111645;28;20407;-58
2024/03/28 01:17:35;;;;;;;0.60;0.60;;;2.30;99.90;;;;;;5111688;28;20902;-59
2024/03/28 01:20:01;;;;;;;0.60;0.60;;;2.80;99.90;;;;;;5111750;28;20211;-57
2024/03/28 01:22:26;;;;;;;0.40;0.40;;;2.20;99.90;;;;;;5111775;28;20255;-58
2024/03/28 01:24:52;;;;;;;3.47;0.70;;;1.90;99.90;;;;;;5111743;28;20747;-56
2024/03/28 01:27:18;;;;;;;0.80;0.67;;;2.20;99.90;;;;;;5111587;28;20200;-56
2024/03/28 01:29:44;;;;;;;5.07;0.70;;;2.20;99.90;;;;;;5111659;28;20219;-58
2024/03/28 01:32:10;;;;;;;1.10;0.80;;;2.70;99.90;;;;;;5111635;28;20171;-56
2024/03/28 01:34:35;;;;;;;0.30;0.30;;;2.20;99.90;;;;;;5111591;28;20652;-59
2024/03/28 01:37:01;;;;;;;0.40;0.40;;;3.80;99.90;;;;;;5111434;28;20205;-58
2024/03/28 01:39:27;;;;;;;3.40;2.20;;;2.10;99.90;;;;;;5114248;28;20167;-59
2024/03/28 01:41:53;;;;;;;2.23;0.77;;;2.00;99.90;;;;;;5115760;28;20543;-58
2024/03/28 01:44:23;;;;;;;1.08;0.98;;;2.60;99.90;;;;;;5115066;28;20550;-58
2024/03/28 01:46:52;;;;;;;6.38;1.55;;;2.20;99.90;;;;;;5114965;28;20211;-59
2024/03/28 01:49:18;;;;;;;0.52;0.52;;;3.60;99.90;;;;;;5114698;28;20202;-58
2024/03/28 01:51:45;;;;;;;1.33;0.80;;;1.80;99.90;;;;;;5114950;28;20172;-58
2024/03/28 01:54:12;;;;;;;0.50;0.50;;;1.90;99.90;;;;;;5115007;28;20168;-58
2024/03/28 01:56:38;;;;;;;2.20;0.90;;;1.50;99.90;;;;;;5114752;28;20240;-58
2024/03/28 01:59:06;;;;;;;2.95;0.88;;;1.70;99.90;;;;;;5114545;28;20174;-58
2024/03/28 02:01:35;;;;;;;0.60;0.45;;;1.50;99.90;;;;;;5114870;27;20228;-57
2024/03/28 02:04:02;;;;;;;0.85;0.50;;;2.00;99.90;;;;;;5114824;28;20178;-58
2024/03/28 02:06:28;;;;;;;0.40;0.40;;;2.00;99.90;;;;;;5114681;28;20206;-57
2024/03/28 02:08:54;;;;;;;0.60;0.60;;;1.90;99.90;;;;;;5113123;27;20623;-59
2024/03/28 02:11:20;;;;;;;0.70;0.57;;;2.00;99.90;;;;;;5114515;28;20166;-58
2024/03/28 02:13:46;;;;;;;0.50;0.50;;;1.60;99.90;;;;;;5114613;28;20170;-58
2024/03/28 02:16:11;;;;;;;0.50;0.50;;;1.80;99.90;;;;;;5114664;28;20198;-59
2024/03/28 02:18:37;;;;;;;0.80;0.60;;;1.90;99.90;;;;;;5114364;28;20167;-58
2024/03/28 02:21:03;;;;;;;0.40;0.40;;;2.20;99.90;;;;;;5114360;28;20280;-58
2024/03/28 02:23:29;;;;;;;0.50;0.50;;;2.00;99.90;;;;;;5114481;27;20695;-59
2024/03/28 02:25:55;;;;;;;0.50;0.50;;;1.30;99.90;;;;;;5114180;28;20429;-58
2024/03/28 02:28:20;;;;;;;6.13;1.37;;;1.90;99.90;;;;;;5114160;28;20174;-59
2024/03/28 02:30:46;;;;;;;1.00;0.47;;;1.90;99.90;;;;;;5114022;28;20203;-59
2024/03/28 02:33:12;;;;;;;0.93;0.93;;;1.60;99.90;;;;;;5114258;28;20616;-59
2024/03/28 02:35:37;;;;;;;1.83;0.97;;;1.60;99.90;;;;;;5113938;28;20198;-58
2024/03/28 02:38:03;;;;;;;0.87;0.73;;;1.80;99.90;;;;;;5114122;28;20171;-59
2024/03/28 02:40:29;;;;;;;0.65;0.65;;;1.70;99.90;;;;;;5113767;28;20269;-57
2024/03/28 02:42:55;;;;;;;0.40;0.40;;;1.70;99.90;;;;;;5114017;28;20240;-58
2024/03/28 02:45:20;;;;;;;0.53;0.53;;;1.80;99.90;;;;;;5113982;28;20216;-58
2024/03/28 02:47:46;;;;;;;0.90;0.90;;;2.40;99.90;;;;;;5113888;28;20171;-58
2024/03/28 02:50:12;;;;;;;0.65;0.40;;;1.80;99.90;;;;;;5112623;28;20203;-58
2024/03/28 02:52:39;;;;;;;0.70;0.70;;;1.50;99.90;;;;;;5113892;28;20624;-58
2024/03/28 02:55:05;;;;;;;0.60;0.60;;;1.70;99.90;;;;;;5114116;28;20261;-57
2024/03/28 02:57:30;;;;;;;0.50;0.50;;;1.70;99.90;;;;;;5113626;28;20257;-58
2024/03/28 02:59:56;;;;;;;0.93;0.80;;;2.30;99.90;;;;;;5113675;28;20464;-59
2024/03/28 03:02:21;;;;;;;0.67;0.50;;;3.20;99.90;;;;;;5113643;28;20210;-59
2024/03/28 03:04:47;;;;;;;0.53;0.53;;;1.50;99.90;;;;;;5113621;28;20258;-59
2024/03/28 03:07:13;;;;;;;0.83;0.50;;;1.50;99.90;;;;;;5113518;28;20190;-56
2024/03/28 03:09:41;;;;;;;0.93;0.93;;;1.70;99.90;;;;;;5113125;28;20252;-58
2024/03/28 03:12:07;;;;;;;0.93;0.93;;;1.70;99.90;;;;;;5113436;28;20220;-58
2024/03/28 03:14:33;;;;;;;0.60;0.60;;;1.80;99.90;;;;;;5113776;28;20186;-57
2024/03/28 03:16:59;;;;;;;0.40;0.40;;;1.70;99.90;;;;;;5113330;28;20246;-57
2024/03/28 03:19:24;;;;;;;0.50;0.50;;;1.70;99.90;;;;;;5113026;28;20178;-58
2024/03/28 03:21:52;;;;;;;1.03;0.70;;;1.60;99.90;;;;;;5113258;28;20181;-59
2024/03/28 03:24:19;;;;;;;0.45;0.45;;;1.60;99.90;;;;;;5113161;27;20691;-58
2024/03/28 03:26:49;;;;;;;1.08;0.63;;;1.30;99.90;;;;;;5113200;28;20199;-58
2024/03/28 03:34:53;;;;;;;0.82;0.68;;;1.40;99.90;;;;;;5048775;28;20182;-58
2024/03/28 03:37:24;;;;;;;0.53;0.53;;;1.70;99.90;;;;;;5102231;28;20217;-59
2024/03/28 03:39:54;;;;;;;0.60;0.60;;;1.70;99.90;;;;;;5112747;28;20612;-58
2024/03/28 03:42:19;;;;;;;0.50;0.50;;;2.00;99.90;;;;;;5112815;28;20172;-58
2024/03/28 03:44:45;;;;;;;0.80;0.80;;;1.70;99.90;;;;;;5112766;28;20265;-58
2024/03/28 03:47:11;;;;;;;0.90;0.73;;;1.90;99.90;;;;;;5112844;28;20186;-58
2024/03/28 03:49:43;;;;;;;0.77;0.77;;;1.90;99.90;;;;;;5112418;28;20464;-58
2024/03/28 03:52:09;;;;;;;0.73;0.73;;;1.90;99.90;;;;;;5112721;28;20235;-57
2024/03/28 03:54:35;;;;;;;0.60;0.52;;;2.80;99.90;;;;;;5112769;28;20171;-58
2024/03/28 03:57:00;;;;;;;0.73;0.73;;;2.30;99.90;;;;;;5112444;28;20191;-58
2024/03/28 03:59:26;;;;;;;0.80;0.77;;;3.20;99.90;;;;;;5112390;28;20172;-59
2024/03/28 04:01:51;;;;;;;0.93;0.93;;;2.20;99.90;;;;;;5112423;28;20179;-58
2024/03/28 04:04:17;;;;;;;1.00;0.80;;;2.40;99.90;;;;;;5112367;28;20547;-59
2024/03/28 04:06:43;;;;;;;0.50;0.50;;;2.50;99.90;;;;;;5112360;28;20196;-58
2024/03/28 04:09:08;;;;;;;1.03;1.03;;;2.50;99.90;;;;;;5112108;28;20276;-58
2024/03/28 04:11:34;;;;;;;1.20;1.20;;;2.50;99.90;;;;;;5112356;28;20171;-58
2024/03/28 04:14:00;;;;;;;0.70;0.70;;;2.30;99.90;;;;;;5112467;28;20167;-58
2024/03/28 04:16:26;;;;;;;0.60;0.60;;;2.70;99.90;;;;;;5112276;28;20463;-58
2024/03/28 04:18:52;;;;;;;1.10;1.00;;;2.50;99.90;;;;;;5112022;28;20539;-56
2024/03/28 04:21:18;;;;;;;3.63;1.20;;;2.80;99.90;;;;;;5112339;28;20172;-59
2024/03/28 04:23:44;;;;;;;1.00;0.80;;;2.60;99.90;;;;;;5112340;28;20632;-58
2024/03/28 04:26:10;;;;;;;0.63;0.63;;;2.80;99.80;;;;;;5112111;28;20738;-58
2024/03/28 04:28:36;;;;;;;1.37;0.80;;;3.00;99.70;;;;;;5111991;28;20183;-58
2024/03/28 04:31:01;;;;;;;0.83;0.77;;;2.80;99.70;;;;;;5112061;28;20540;-59
2024/03/28 04:33:28;;;;;;;1.10;1.03;;;3.10;99.90;;;;;;5112168;28;20168;-58
2024/03/28 04:35:54;;;;;;;0.80;0.80;;;3.10;99.90;;;;;;5111999;28;20211;-59
2024/03/28 04:38:20;;;;;;;1.10;1.10;;;3.70;99.90;;;;;;5112075;28;20537;-58
2024/03/28 04:40:45;;;;;;;0.90;0.90;;;3.60;99.90;;;;;;5111901;28;20183;-58
2024/03/28 04:43:14;;;;;;;1.40;1.30;;;2.80;99.50;;;;;;5112122;28;20591;-58
2024/03/28 04:45:40;;;;;;;2.05;1.92;;;3.10;99.60;;;;;;5111993;28;20191;-59
2024/03/28 04:48:06;;;;;;;1.07;0.93;;;3.40;99.70;;;;;;5111966;28;20178;-59
2024/03/28 04:50:31;;;;;;;1.63;1.27;;;3.30;99.90;;;;;;5111737;28;20703;-59
2024/03/28 04:52:57;;;;;;;2.57;1.17;;;3.10;99.90;;;;;;5112054;28;20220;-58
2024/03/28 04:55:22;;;;;;;1.67;1.20;;;3.50;99.90;;;;;;5111815;28;20161;-59
2024/03/28 04:57:48;;;;;;;2.80;1.30;;;3.70;99.90;;;;;;5111895;28;20206;-59
2024/03/28 05:00:15;;;;;;;1.47;1.03;;;3.80;99.90;;;;;;5111889;28;20200;-59
2024/03/28 05:02:41;;;;;;;1.95;1.02;;;3.50;99.90;;;;;;5111949;28;20172;-58
2024/03/28 05:05:08;;;;;;;1.43;1.03;;;2.80;99.90;;;;;;5111827;28;20716;-59
2024/03/28 05:07:35;;;;;;;1.27;1.17;;;3.10;99.90;;;;;;5111890;28;20222;-56
2024/03/28 05:10:01;;;;;;;0.93;0.93;;;3.00;99.90;;;;;;5111483;28;20196;-57
2024/03/28 05:12:26;;;;;;;1.03;0.90;;;2.70;99.90;;;;;;5111890;28;20706;-59
2024/03/28 05:14:53;;;;;;;1.50;1.40;;;2.70;99.90;;;;;;5115675;28;20405;-58
2024/03/28 05:17:18;;;;;;;1.30;1.20;;;3.20;99.90;;;;;;5115691;28;20176;-59
2024/03/28 05:19:44;;;;;;;1.87;1.57;;;3.10;99.90;;;;;;5115423;28;20670;-57
2024/03/28 05:22:10;;;;;;;1.33;1.23;;;3.70;99.90;;;;;;5115633;28;20288;-58
2024/03/28 05:24:35;;;;;;;2.87;1.40;;;3.30;99.90;;;;;;5115425;28;20668;-58
2024/03/28 05:27:02;;;;;;;1.87;1.60;;;3.60;99.90;;;;;;5115474;28;20210;-58
2024/03/28 05:29:28;;;;;;;3.38;1.67;;;3.70;99.90;;;;;;5115343;28;20456;-58
2024/03/28 05:31:54;;;;;;;3.50;1.88;;;3.90;99.90;;;;;;5115467;28;20204;-58
2024/03/28 05:34:20;;;;;;;3.58;2.97;;;3.90;99.90;;;;;;5115535;28;20156;-59
2024/03/28 05:36:46;;;;;;;1.10;1.10;;;4.10;99.90;;;;;;5115211;27;20208;-58
2024/03/28 05:39:14;;;;;;;2.10;1.37;;;4.20;99.90;;;;;;5114886;28;20217;-58
2024/03/28 05:41:40;;;;;;;1.35;1.15;;;4.20;99.90;;;;;;5115249;28;20172;-59
2024/03/28 05:44:06;;;;;;;1.70;1.25;;;4.30;99.90;;;;;;5115176;28;20222;-58
2024/03/28 05:46:31;;;;;;;2.43;1.77;;;4.20;99.90;;;;;;5115079;28;20188;-58
2024/03/28 05:48:57;;;;;;;2.30;2.10;;;4.10;99.90;;;;;;5115034;28;20676;-59
2024/03/28 05:51:23;;;;;;;1.13;1.03;;;4.00;99.90;;;;;;5115078;28;20164;-59
2024/03/28 05:53:48;;;;;;;1.53;1.17;;;4.10;99.90;;;;;;5114985;28;20164;-59
2024/03/28 05:56:18;;;;;;;1.97;1.53;;;3.70;99.90;;;;;;5114842;28;20696;-58
2024/03/28 05:58:45;;;;;;;0.95;0.90;;;4.10;99.90;;;;;;5114684;28;20203;-59
2024/03/28 06:01:10;;;;;;;1.60;1.50;;;4.10;99.90;;;;;;5113559;28;20172;-58
2024/03/28 06:03:36;;;;;;;4.27;3.87;;;4.10;99.90;;;;;;5114875;28;20298;-59
2024/03/28 06:06:03;;;;;;;3.67;3.33;;;4.20;99.90;;;;;;5114647;28;20418;-58
2024/03/28 06:08:28;;;;;;;1.23;0.95;;;4.30;99.90;;;;;;5128619;27;20178;-59
2024/03/28 06:10:54;;;;;;;1.63;0.90;;;4.40;99.90;;;;;;5135236;27;20632;-59
2024/03/28 06:13:22;;;;;;;1.27;1.07;;;4.30;99.90;;;;;;5135152;27;20409;-59
2024/03/28 06:15:49;;;;;;;0.90;0.85;;;4.30;99.90;;;;;;5134775;27;20190;-58
2024/03/28 06:18:15;;;;;;;0.70;0.70;;;4.30;99.90;;;;;;5118474;27;20187;-59
2024/03/28 06:20:41;;;;;;;2.00;1.30;;;4.30;99.90;;;;;;5114394;28;20707;-58
2024/03/28 06:23:07;;;;;;;2.83;2.40;;;4.30;99.90;;;;;;5113455;28;20181;-57
2024/03/28 06:25:37;;;;;;;2.00;1.90;;;4.30;99.90;;;;;;5113029;28;20432;-59
2024/03/28 06:28:03;;;;;;;1.63;1.50;;;4.40;99.90;;;;;;5114099;28;20414;-59
2024/03/28 06:30:30;;;;;;;2.40;2.10;;;4.40;99.90;;;;;;5113703;28;20200;-59
2024/03/28 06:32:56;;;;;;;4.63;2.42;;;4.40;99.90;;;;;;5114191;28;20168;-58
2024/03/28 06:37:51;;;;;;;1.33;1.23;;;4.60;99.90;;;;;;5125322;22;20699;-63
2024/03/28 06:40:17;;;;;;;2.70;1.50;;;4.60;99.90;;;;;;5071990;28;20411;-64
2024/03/28 06:42:42;;;;;;;1.77;1.47;;;4.20;99.90;;;;;;5073427;28;20174;-64
2024/03/28 06:45:08;;;;;;;1.30;1.13;;;4.70;99.90;;;;;;5073465;28;20180;-64
2024/03/28 06:47:34;;;;;;;1.43;1.33;;;4.70;99.90;;;;;;5073248;28;20200;-64
2024/03/28 06:50:00;;;;;;;1.10;0.70;;;5.10;99.90;;;;;;5072881;28;20439;-64
2024/03/28 06:52:26;;;;;;;1.23;1.13;;;4.80;99.90;;;;;;5073155;28;20166;-64
2024/03/28 06:54:52;;;;;;;2.40;1.95;;;4.70;99.90;;;;;;5073166;28;20404;-64
2024/03/28 06:57:19;;;;;;;3.45;3.13;;;4.70;99.90;;;;;;5067833;28;20271;-64
2024/03/28 06:59:45;;;;;;;2.73;2.53;;;4.60;99.90;;;;;;5072767;28;20578;-63
2024/03/28 07:02:10;;;;;;;4.47;2.83;;;4.40;99.90;;;;;;5073114;28;20305;-64
2024/03/28 07:04:36;;;;;;;2.50;2.10;;;4.10;99.90;;;;;;5073081;28;20181;-64
2024/03/28 07:07:02;;;;;;;2.30;1.40;;;5.40;99.90;;;;;;5072790;28;20563;-63
2024/03/28 07:09:28;;;;;;;1.13;1.00;;;5.20;99.90;;;;;;5072701;28;20209;-64
2024/03/28 07:11:53;;;;;;;1.97;1.60;;;4.70;99.90;;;;;;5072846;28;20714;-64
2024/03/28 07:14:19;;;;;;;1.43;1.20;;;5.00;99.90;;;;;;5072828;28;20218;-64
2024/03/28 07:16:45;;;;;;;3.20;2.20;;;5.20;99.90;;;;;;5072631;28;20427;-64
2024/03/28 07:19:11;;;;;;;2.23;1.17;;;4.80;99.90;;;;;;5072410;28;21051;-64
2024/03/28 07:21:39;;;;;;;1.63;1.27;;;4.70;99.90;;;;;;5072538;28;20411;-64
2024/03/28 07:24:05;;;;;;;2.08;1.73;;;4.50;99.90;;;;;;5072604;28;20175;-64
2024/03/28 07:26:31;;;;;;;1.23;1.17;;;4.40;99.90;;;;;;5072477;28;20280;-64
2024/03/28 07:28:58;;;;;;;0.90;0.70;;;4.50;99.90;;;;;;5072294;28;20408;-64
2024/03/28 07:31:23;;;;;;;0.95;0.95;;;4.10;99.90;;;;;;5073528;28;20178;-64
2024/03/28 07:33:49;;;;;;;1.90;1.30;;;4.40;99.90;;;;;;5072480;28;20173;-64
2024/03/28 07:36:15;;;;;;;0.70;0.70;;;4.40;99.90;;;;;;5071550;28;20205;-64
2024/03/28 07:38:41;;;;;;;1.05;0.80;;;3.90;99.90;;;;;;5072244;28;20227;-64
2024/03/28 07:41:07;;;;;;;1.60;1.42;;;5.10;99.90;;;;;;5072119;28;20248;-64
2024/03/28 07:43:33;;;;;;;0.57;0.57;;;4.00;99.90;;;;;;5072326;28;20191;-64
2024/03/28 07:46:03;;;;;;;1.33;1.03;;;4.20;99.90;;;;;;5072179;28;20560;-64
2024/03/28 07:48:29;;;;;;;0.52;0.52;;;4.20;99.90;;;;;;5072714;28;20173;-64
2024/03/28 07:50:59;;;;;;;0.60;0.60;;;4.00;99.90;;;;;;5071844;28;20202;-64
2024/03/28 07:53:25;;;;;;;0.60;0.60;;;4.10;99.90;;;;;;5072187;28;20404;-64
2024/03/28 07:55:51;;;;;;;0.60;0.50;;;4.90;99.90;;;;;;5070228;28;20197;-63
2024/03/28 07:58:17;;;;;;;0.40;0.40;;;4.20;99.90;;;;;;5071788;28;20170;-64
2024/03/28 08:00:42;;;;;;;0.40;0.40;;;4.10;99.90;;;;;;5071870;28;20174;-63
2024/03/28 08:03:08;;;;;;;0.50;0.50;;;4.80;99.90;;;;;;5072545;28;20204;-63
2024/03/28 08:05:36;;;;;;;0.40;0.40;;;3.70;99.90;;;;;;5071804;28;20655;-63
2024/03/28 08:08:03;;;;;;;0.40;0.40;;;3.80;99.90;;;;;;5072041;28;20271;-63
2024/03/28 08:10:31;;;;;;;0.75;0.60;;;4.00;99.90;;;;;;5070294;28;20200;-63
2024/03/28 08:12:58;;;;;;;0.40;0.40;;;3.90;99.90;;;;;;5072054;28;20177;-64
2024/03/28 08:15:25;;;;;;;0.70;0.70;;;;;;;;;;5071899;28;20651;-64
2024/03/28 08:17:51;;;;;;;0.70;0.65;;;4.10;99.90;;;;;;5070560;28;20197;-63
2024/03/28 08:20:18;;;;;;;0.50;0.50;;;4.20;99.90;;;;;;5071554;28;20182;-64
2024/03/28 08:22:43;;;;;;;0.40;0.40;;;4.30;99.90;;;;;;5071939;28;20169;-63
2024/03/28 08:25:10;;;;;;;0.40;0.40;;;4.40;99.90;;;;;;5071901;28;20553;-63
2024/03/28 08:27:36;;;;;;;0.40;0.40;;;4.50;99.90;;;;;;5071712;28;20296;-64
2024/03/28 08:30:05;;;;;;;0.50;0.50;;;4.70;99.90;;;;;;5071345;28;20201;-63
2024/03/28 08:32:30;;;;;;;0.50;0.50;;;5.30;99.90;;;;;;5071701;28;20570;-64
2024/03/28 08:34:57;;;;;;;0.40;0.40;;;5.30;99.90;;;;;;5067663;28;20205;-64
2024/03/28 08:37:23;;;;;;;0.45;0.40;;;5.40;99.90;;;;;;5069927;28;20209;-64
2024/03/28 08:39:49;;;;;;;0.95;0.60;;;5.70;99.90;;;;;;5071561;28;20263;-64
2024/03/28 08:42:15;;;;;;;0.40;0.40;;;5.70;99.90;;;;;;5071628;28;20635;-63
2024/03/28 08:44:41;;;;;;;0.50;0.50;;;5.70;99.50;;;;;;5071542;28;20177;-63
2024/03/28 08:47:07;;;;;;;0.43;0.43;;;5.90;99.50;;;;;;5072451;28;20198;-64
2024/03/28 08:49:33;;;;;;;0.50;0.50;;;5.80;99.10;;;;;;5075138;28;20208;-64
2024/03/28 08:51:59;;;;;;;0.40;0.40;;;5.70;99.00;;;;;;5075728;28;20173;-64
2024/03/28 08:54:25;;;;;;;0.67;0.60;;;5.90;99.40;;;;;;5076000;28;20182;-64
2024/03/28 08:56:50;;;;;;;0.50;0.50;;;6.10;99.40;;;;;;5074089;28;20682;-64
2024/03/28 08:59:19;;;;;;;1.10;0.60;;;6.10;99.00;;;;;;5075148;28;20415;-63
2024/03/28 09:01:45;;;;;;;0.40;0.40;;;6.10;98.80;;;;;;5075381;28;20648;-64
2024/03/28 09:04:14;;;;;;;0.40;0.40;;;6.10;98.90;;;;;;5075334;28;20253;-63
2024/03/28 09:06:39;;;;;;;0.77;0.77;;;6.10;98.60;;;;;;5075491;28;20191;-64
2024/03/28 09:09:07;;;;;;;0.60;0.60;;;6.00;98.80;;;;;;5074915;28;20291;-64
2024/03/28 09:11:33;;;;;;;0.50;0.50;;;6.10;98.70;;;;;;5075401;28;20577;-64
2024/03/28 09:13:59;;;;;;;0.50;0.50;;;6.10;98.40;;;;;;5075204;28;20169;-63
2024/03/28 09:16:26;;;;;;;2.00;0.60;;;6.10;98.50;;;;;;5074954;28;20196;-64
2024/03/28 09:18:51;;;;;;;0.70;0.60;;;6.20;98.60;;;;;;5074737;28;20170;-63
2024/03/28 09:21:17;;;;;;;0.60;0.47;;;6.40;98.70;;;;;;5075000;28;20255;-64
2024/03/28 09:23:43;;;;;;;0.43;0.43;;;6.50;98.50;;;;;;5073700;28;20167;-64
2024/03/28 09:26:09;;;;;;;0.40;0.40;;;6.60;98.20;;;;;;5074801;28;20188;-64
2024/03/28 09:28:35;;;;;;;0.57;0.57;;;6.70;98.30;;;;;;5074684;28;20641;-63
2024/03/28 09:31:01;;;;;;;1.63;0.40;;;6.60;98.00;;;;;;5074430;28;20245;-63
2024/03/28 09:33:27;;;;;;;0.55;0.55;;;6.60;98.20;;;;;;5074715;28;20506;-63
2024/03/28 09:35:53;;;;;;;1.75;0.47;;;6.80;98.50;;;;;;5073278;28;20704;-63
2024/03/28 09:38:18;;;;;;;0.40;0.40;;;7.00;98.20;;;;;;5074618;28;20160;-64
2024/03/28 09:40:51;;;;;;;4.30;2.63;;;7.20;98.10;;;;;;5074644;28;20593;-64
2024/03/28 09:43:18;;;;;;;2.92;1.95;;;7.50;98.00;;;;;;5074621;28;20184;-64
2024/03/28 09:45:44;;;;;;;0.80;0.80;;;7.80;98.30;;;;;;5074438;28;20603;-64
2024/03/28 09:48:14;;;;;;;0.60;0.60;;;8.10;97.30;;;;;;5074423;28;20184;-64
2024/03/28 09:50:41;;;;;;;1.10;0.65;;;8.20;96.90;;;;;;5074228;28;20205;-64
2024/03/28 09:53:09;;;;;;;0.88;0.85;;;8.50;96.30;;;;;;5074318;28;20184;-64
2024/03/28 09:55:36;;;;;;;0.50;0.50;;;8.70;99.90;;;;;;5074259;28;20216;-64
2024/03/28 09:58:03;;;;;;;0.60;0.60;;;8.80;95.30;;;;;;5074144;28;20194;-64
2024/03/28 10:00:30;;;;;;;5.18;0.77;;;9.00;95.60;;;;;;5073436;28;20564;-64
2024/03/28 10:02:59;;;;;;;0.40;0.40;;;9.60;95.80;;;;;;5074184;28;20188;-64
2024/03/28 10:05:26;;;;;;;0.97;0.97;;;11.50;99.90;;;;;;5074150;28;20415;-64
2024/03/28 10:07:52;;;;;;;0.87;0.80;;;11.30;91.60;;;;;;5072852;28;20431;-65
2024/03/28 10:10:19;;;;;;;2.23;1.33;;;12.80;89.10;;;;;;5073810;28;21009;-64
2024/03/28 10:12:55;;;;;;;0.63;0.63;;;13.50;84.10;;;;;;5074122;28;20440;-64
2024/03/28 10:15:21;;;;;;;1.27;0.80;;;13.90;82.00;;;;;;5074633;28;20457;-64
2024/03/28 10:18:00;;;;;;;1.20;0.80;;;14.10;80.40;;;;;;5074070;28;20431;-64
2024/03/28 10:20:27;;;;;;;7.60;0.90;;;15.00;79.30;;;;;;5073792;28;20469;-64
2024/03/28 10:22:53;;;;;;;1.10;0.80;;;16.00;74.80;;;;;;5073992;28;20407;-65
2024/03/28 10:25:25;;;;;;;0.80;0.70;;;16.30;73.40;;;;;;5074417;28;20432;-64
2024/03/28 10:27:57;;;;;;;0.70;0.60;;;16.20;71.10;;;;;;5073922;28;21008;-64
2024/03/28 10:30:24;;;;;;;0.60;0.50;;;16.70;69.40;;;;;;5073551;28;20449;-64
2024/03/28 10:33:07;;;;;;;0.50;0.50;;;16.50;66.80;;;;;;5073703;28;20407;-64
2024/03/28 10:35:34;;;;;;;0.77;0.40;;;15.30;89.20;;;;;;5073423;28;20400;-64
2024/03/28 10:38:04;;;;;;;2.43;0.50;;;15.00;69.40;;;;;;5073584;28;20495;-64
2024/03/28 10:40:32;;;;;;;0.50;0.40;;;14.90;73.80;;;;;;5073320;28;20412;-64
2024/03/28 10:43:01;;;;;;;0.40;0.40;;;14.50;73.90;;;;;;5073525;28;20826;-64
2024/03/28 10:45:31;;;;;;;0.67;0.50;;;12.90;92.90;;;;;;5073436;28;20412;-64
2024/03/28 10:47:59;;;;;;;0.50;0.50;;;13.00;74.40;;;;;;5073341;28;20400;-64
2024/03/28 10:50:57;;;;;;;1.03;0.60;;;12.10;75.10;;;;;;5073030;28;20439;-64
2024/03/28 10:53:35;;;;;;;0.77;0.60;;;11.30;80.10;;;;;;5073319;28;20507;-63
2024/03/28 10:56:08;;;;;;;0.60;0.60;;;10.80;83.00;;;;;;5073403;28;20449;-64
2024/03/28 10:58:35;;;;;;;1.73;0.83;;;10.30;84.10;;;;;;5073065;28;20419;-64
2024/03/28 11:01:02;;;;;;;0.70;0.70;;;10.20;87.00;;;;;;5073030;28;20458;-63
2024/03/28 11:03:30;;;;;;;0.50;0.50;;;9.80;89.90;;;;;;5073258;28;20481;-63
2024/03/28 11:05:58;;;;;;;0.60;0.60;;;9.30;89.40;;;;;;5072942;28;20476;-64
2024/03/28 11:08:25;;;;;;;1.85;0.80;;;9.10;90.10;;;;;;5072912;28;20222;-64
2024/03/28 11:10:51;;;;;;;0.60;0.60;;;9.20;91.40;;;;;;5071654;28;20200;-64
2024/03/28 11:13:17;;;;;;;0.73;0.60;;;9.30;92.00;;;;;;5072827;28;20303;-64
2024/03/28 11:15:42;;;;;;;0.50;0.50;;;9.50;99.90;;;;;;5072753;28;20202;-64
2024/03/28 11:18:14;;;;;;;0.70;0.70;;;9.30;93.00;;;;;;5072796;28;20165;-64
2024/03/28 11:20:50;;;;;;;1.20;0.50;;;9.60;92.20;;;;;;5072596;28;20182;-63
2024/03/28 11:23:16;;;;;;;1.20;0.50;;;9.80;91.10;;;;;;5072654;28;20177;-64
2024/03/28 11:25:46;;;;;;;1.27;0.60;;;9.90;97.10;;;;;;5072449;28;20185;-64
2024/03/28 11:28:13;;;;;;;0.50;0.50;;;9.90;88.10;;;;;;5072706;28;20165;-64
2024/03/28 11:30:51;;;;;;;0.50;0.43;;;9.90;87.60;;;;;;5072226;28;20240;-64
2024/03/28 11:33:28;;;;;;;0.88;0.50;;;9.60;87.40;;;;;;5071661;28;20168;-64
2024/03/28 11:36:04;;;;;;;0.40;0.40;;;9.70;90.80;;;;;;5032093;28;20194;-64
2024/03/28 11:38:33;;;;;;;0.95;0.60;;;9.60;89.50;;;;;;5033021;28;20259;-64
2024/03/28 11:40:59;;;;;;;0.40;0.40;;;9.50;89.20;;;;;;5032433;28;20182;-64
2024/03/28 11:43:25;;;;;;;0.30;0.30;;;9.30;86.20;;;;;;5032527;28;20594;-64
2024/03/28 11:45:55;;;;;;;1.23;0.50;;;9.50;85.50;;;;;;5035001;28;20205;-65
2024/03/28 11:48:31;;;;;;;0.63;0.63;;;9.40;83.60;;;;;;5052053;28;20174;-64
2024/03/28 11:50:57;;;;;;;0.40;0.40;;;9.50;88.30;;;;;;5051992;28;20197;-64
2024/03/28 11:53:22;;;;;;;0.40;0.40;;;9.60;87.50;;;;;;5070603;28;20169;-64
2024/03/28 11:55:49;;;;;;;0.60;0.60;;;10.00;83.80;;;;;;5072119;28;20181;-64
2024/03/28 11:58:25;;;;;;;0.68;0.50;;;10.20;81.60;;;;;;5069927;28;20168;-64
2024/03/28 12:01:03;;;;;;;1.77;0.50;;;10.30;80.80;;;;;;5071794;28;20311;-64
2024/03/28 12:03:29;;;;;;;0.40;0.40;;;10.60;84.70;;;;;;5071990;28;20240;-64
2024/03/28 12:05:56;;;;;;;0.40;0.40;;;10.90;85.20;;;;;;5071809;28;20427;-65
2024/03/28 12:08:30;;;;;;;0.40;0.40;;;11.10;82.90;;;;;;5071891;28;20165;-64
2024/03/28 12:11:00;;;;;;;0.30;0.30;;;11.30;82.70;;;;;;5071643;28;20455;-64
2024/03/28 12:13:27;;;;;;;0.40;0.40;;;11.50;78.20;;;;;;5071853;28;20419;-64
2024/03/28 12:16:06;;;;;;;1.63;0.50;;;11.40;78.20;;;;;;5071753;28;20511;-64
2024/03/28 12:18:33;;;;;;;0.40;0.40;;;11.40;77.20;;;;;;5071695;28;20756;-64
2024/03/28 12:21:01;;;;;;;0.70;0.40;;;11.20;77.10;;;;;;5071739;28;20404;-65
2024/03/28 12:23:27;;;;;;;0.70;0.60;;;11.00;79.50;;;;;;5071582;28;20178;-64
2024/03/28 12:25:53;;;;;;;1.08;0.40;;;10.70;75.80;;;;;;5071546;28;20203;-63
2024/03/28 12:28:24;;;;;;;0.40;0.40;;;10.50;79.00;;;;;;5071564;28;20269;-64
2024/03/28 12:30:54;;;;;;;0.40;0.40;;;10.40;78.20;;;;;;5071921;28;20451;-64
2024/03/28 12:33:21;;;;;;;0.37;0.37;;;10.40;77.40;;;;;;5071744;28;20256;-64
2024/03/28 12:35:51;;;;;;;0.40;0.40;;;10.60;81.20;;;;;;5071466;28;20432;-64
2024/03/28 12:38:19;;;;;;;0.40;0.40;;;10.80;81.50;;;;;;5069705;28;20502;-64
2024/03/28 12:40:50;;;;;;;0.50;0.50;;;11.00;70.90;;;;;;5071603;28;20411;-64
2024/03/28 12:43:18;;;;;;;0.50;0.40;;;10.80;70.30;;;;;;5071808;28;20885;-64
2024/03/28 12:45:43;;;;;;;0.40;0.40;;;9.80;95.30;;;;;;5071320;28;20929;-64
2024/03/28 12:48:10;;;;;;;0.80;0.40;;;9.90;68.80;;;;;;5051772;28;20263;-64
2024/03/28 12:50:45;;;;;;;0.70;0.50;;;9.60;73.10;;;;;;5051087;28;20202;-64
2024/03/28 12:53:11;;;;;;;0.40;0.40;;;9.60;70.00;;;;;;5050182;28;20587;-64
2024/03/28 12:55:37;;;;;;;0.40;0.40;;;9.80;95.70;;;;;;5051371;28;20166;-64
2024/03/28 12:58:03;;;;;;;0.40;0.40;;;9.70;69.90;;;;;;5051325;28;20167;-64
2024/03/28 13:00:29;;;;;;;0.50;0.50;;;9.70;69.20;;;;;;5051260;28;20166;-64
2024/03/28 13:02:54;;;;;;;0.40;0.40;;;9.60;69.30;;;;;;5052212;28;20409;-64